HFM2503 NZCH-NZFX
Flight info
| Callsign | HFM2503 |
|---|---|
| Flight time | 4h 32m |
| Altitude | 37000 |
| Route | PEHRR A338 FRITH/N0467F380 A338 NOBEY |
| Aircraft | A346/H-SDE2E3FGHIJ3J4J5M1RWXY/LB1D1 |
Departure
| Time | 2026-05-08 02:18 |
|---|---|
| Airport | Christchurch International Airport (NZCH) |
Arrival
| Time | 2026-05-08 06:50 |
|---|---|
| Airport | Phoenix Airfield (NZFX) |
| Time | Latitude | Longitude | Altitude | Speed | Heading |
|---|---|---|---|---|---|
| 2026-05-08 01:41 | -43.48734 | 172.54543 | 110 ft | 0 kts | 270° |
| 2026-05-08 02:09 | -43.48734 | 172.54539 | 110 ft | 3 kts | 271° |
| 2026-05-08 02:09 | -43.48732 | 172.54516 | 110 ft | 0 kts | 282° |
| 2026-05-08 02:10 | -43.48732 | 172.54515 | 110 ft | 1 kts | 282° |
| 2026-05-08 02:10 | -43.48717 | 172.54450 | 111 ft | 13 kts | 292° |
| 2026-05-08 02:10 | -43.48677 | 172.54353 | 110 ft | 0 kts | 305° |
| 2026-05-08 02:11 | -43.48675 | 172.54349 | 110 ft | 2 kts | 306° |
| 2026-05-08 02:11 | -43.48657 | 172.54315 | 111 ft | 7 kts | 308° |
| 2026-05-08 02:11 | -43.48620 | 172.54252 | 111 ft | 9 kts | 308° |
| 2026-05-08 02:12 | -43.48569 | 172.54167 | 111 ft | 13 kts | 312° |
| 2026-05-08 02:12 | -43.48510 | 172.54061 | 112 ft | 15 kts | 287° |
| 2026-05-08 02:12 | -43.48555 | 172.53942 | 114 ft | 15 kts | 219° |
| 2026-05-08 02:12 | -43.48643 | 172.53844 | 114 ft | 19 kts | 220° |
| 2026-05-08 02:13 | -43.48754 | 172.53715 | 118 ft | 21 kts | 220° |
| 2026-05-08 02:13 | -43.48871 | 172.53579 | 119 ft | 23 kts | 220° |
| 2026-05-08 02:13 | -43.49000 | 172.53430 | 117 ft | 25 kts | 220° |
| 2026-05-08 02:13 | -43.49141 | 172.53270 | 117 ft | 26 kts | 219° |
| 2026-05-08 02:14 | -43.49284 | 172.53106 | 117 ft | 27 kts | 220° |
| 2026-05-08 02:14 | -43.49419 | 172.52950 | 123 ft | 19 kts | 220° |
| 2026-05-08 02:14 | -43.49502 | 172.52818 | 126 ft | 19 kts | 251° |
| 2026-05-08 02:14 | -43.49498 | 172.52628 | 121 ft | 22 kts | 278° |
| 2026-05-08 02:15 | -43.49559 | 172.52438 | 121 ft | 24 kts | 218° |
| 2026-05-08 02:15 | -43.49689 | 172.52306 | 119 ft | 18 kts | 194° |
| 2026-05-08 02:15 | -43.49752 | 172.52272 | 121 ft | 5 kts | 287° |
| 2026-05-08 02:15 | -43.49713 | 172.52269 | 120 ft | 8 kts | 30° |
| 2026-05-08 02:16 | -43.49694 | 172.52289 | 119 ft | 0 kts | 41° |
| 2026-05-08 02:17 | -43.49618 | 172.52376 | 120 ft | 42 kts | 39° |
| 2026-05-08 02:17 | -43.49232 | 172.52821 | 119 ft | 101 kts | 40° |
| 2026-05-08 02:17 | -43.48557 | 172.53599 | 118 ft | 150 kts | 40° |
| 2026-05-08 02:17 | -43.47654 | 172.54636 | 224 ft | 183 kts | 40° |
| 2026-05-08 02:18 | -43.46643 | 172.55725 | 762 ft | 185 kts | 36° |
| 2026-05-08 02:18 | -43.45562 | 172.56596 | 1563 ft | 179 kts | 25° |
| 2026-05-08 02:18 | -43.44403 | 172.57168 | 2233 ft | 181 kts | 19° |
| 2026-05-08 02:18 | -43.43179 | 172.57797 | 2610 ft | 195 kts | 22° |
| 2026-05-08 02:19 | -43.41899 | 172.58565 | 3076 ft | 203 kts | 23° |
| 2026-05-08 02:19 | -43.40603 | 172.59359 | 3679 ft | 205 kts | 21° |
| 2026-05-08 02:19 | -43.39219 | 172.59730 | 4271 ft | 206 kts | 355° |
| 2026-05-08 02:19 | -43.37873 | 172.59045 | 4856 ft | 213 kts | 325° |
| 2026-05-08 02:20 | -43.36950 | 172.57424 | 5533 ft | 225 kts | 296° |
| 2026-05-08 02:20 | -43.36815 | 172.55190 | 6120 ft | 251 kts | 263° |
| 2026-05-08 02:20 | -43.37549 | 172.52942 | 6895 ft | 260 kts | 251° |
| 2026-05-08 02:20 | -43.38380 | 172.50731 | 7704 ft | 261 kts | 251° |
| 2026-05-08 02:21 | -43.39542 | 172.48731 | 8419 ft | 283 kts | 221° |
| 2026-05-08 02:21 | -43.41435 | 172.47742 | 9143 ft | 304 kts | 191° |
| 2026-05-08 02:21 | -43.43606 | 172.47648 | 9696 ft | 321 kts | 181° |
| 2026-05-08 02:21 | -43.45850 | 172.47783 | 10203 ft | 334 kts | 181° |
| 2026-05-08 02:22 | -43.48261 | 172.47860 | 10634 ft | 350 kts | 184° |
| 2026-05-08 02:22 | -43.50727 | 172.47826 | 11001 ft | 368 kts | 185° |
| 2026-05-08 02:22 | -43.53342 | 172.47715 | 11361 ft | 386 kts | 186° |
| 2026-05-08 02:22 | -43.56083 | 172.47465 | 11707 ft | 404 kts | 188° |
| 2026-05-08 02:23 | -43.58980 | 172.47140 | 12132 ft | 419 kts | 188° |
| 2026-05-08 02:23 | -43.61863 | 172.46809 | 12883 ft | 423 kts | 188° |
| 2026-05-08 02:23 | -43.64799 | 172.46477 | 13702 ft | 425 kts | 188° |
| 2026-05-08 02:23 | -43.67764 | 172.46144 | 14409 ft | 429 kts | 188° |
| 2026-05-08 02:24 | -43.70758 | 172.45810 | 15043 ft | 433 kts | 188° |
| 2026-05-08 02:24 | -43.73777 | 172.45473 | 15676 ft | 438 kts | 188° |
| 2026-05-08 02:24 | -43.76830 | 172.45133 | 16340 ft | 442 kts | 188° |
| 2026-05-08 02:24 | -43.79910 | 172.44790 | 16992 ft | 446 kts | 188° |
| 2026-05-08 02:25 | -43.83011 | 172.44445 | 17632 ft | 450 kts | 188° |
| 2026-05-08 02:25 | -43.86146 | 172.44096 | 18165 ft | 454 kts | 188° |
| 2026-05-08 02:25 | -43.89317 | 172.43741 | 18711 ft | 459 kts | 188° |
| 2026-05-08 02:25 | -43.92515 | 172.43383 | 19289 ft | 463 kts | 188° |
| 2026-05-08 02:26 | -43.95736 | 172.43022 | 19839 ft | 466 kts | 188° |
| 2026-05-08 02:26 | -43.98982 | 172.42658 | 20361 ft | 470 kts | 188° |
| 2026-05-08 02:26 | -44.02248 | 172.42291 | 20823 ft | 474 kts | 188° |
| 2026-05-08 02:26 | -44.05556 | 172.41920 | 21268 ft | 478 kts | 188° |
| 2026-05-08 02:27 | -44.08885 | 172.41546 | 21756 ft | 482 kts | 187° |
| 2026-05-08 02:27 | -44.12235 | 172.41170 | 22206 ft | 485 kts | 187° |
| 2026-05-08 02:27 | -44.15619 | 172.40789 | 22617 ft | 489 kts | 188° |
| 2026-05-08 02:27 | -44.19012 | 172.40315 | 23001 ft | 492 kts | 189° |
| 2026-05-08 02:28 | -44.22422 | 172.39764 | 23349 ft | 495 kts | 190° |
| 2026-05-08 02:28 | -44.25847 | 172.39189 | 23686 ft | 497 kts | 190° |
| 2026-05-08 02:28 | -44.29286 | 172.38609 | 24008 ft | 499 kts | 190° |
| 2026-05-08 02:28 | -44.32741 | 172.38028 | 24307 ft | 500 kts | 190° |
| 2026-05-08 02:29 | -44.36198 | 172.37450 | 24593 ft | 502 kts | 190° |
| 2026-05-08 02:29 | -44.39677 | 172.36869 | 24843 ft | 504 kts | 190° |
| 2026-05-08 02:29 | -44.43115 | 172.36296 | 25054 ft | 505 kts | 190° |
| 2026-05-08 02:29 | -44.46667 | 172.35704 | 25276 ft | 507 kts | 190° |
| 2026-05-08 02:30 | -44.50166 | 172.35120 | 25470 ft | 508 kts | 190° |
| 2026-05-08 02:30 | -44.53678 | 172.34534 | 25650 ft | 509 kts | 190° |
| 2026-05-08 02:30 | -44.57193 | 172.33947 | 25800 ft | 510 kts | 190° |
| 2026-05-08 02:30 | -44.60717 | 172.33357 | 25939 ft | 511 kts | 191° |
| 2026-05-08 02:31 | -44.64256 | 172.32764 | 26056 ft | 512 kts | 191° |
| 2026-05-08 02:31 | -44.67791 | 172.32171 | 26137 ft | 512 kts | 191° |
| 2026-05-08 02:31 | -44.71272 | 172.31586 | 26148 ft | 511 kts | 191° |
| 2026-05-08 02:31 | -44.74836 | 172.30988 | 26060 ft | 510 kts | 191° |
| 2026-05-08 02:32 | -44.78307 | 172.30405 | 25842 ft | 509 kts | 191° |
| 2026-05-08 02:32 | -44.81818 | 172.29813 | 25546 ft | 507 kts | 191° |
| 2026-05-08 02:32 | -44.85312 | 172.29222 | 25165 ft | 504 kts | 191° |
| 2026-05-08 02:32 | -44.88771 | 172.28637 | 24722 ft | 501 kts | 191° |
| 2026-05-08 02:33 | -44.92218 | 172.28053 | 24240 ft | 498 kts | 191° |
| 2026-05-08 02:33 | -44.95631 | 172.27475 | 23717 ft | 494 kts | 191° |
| 2026-05-08 02:33 | -44.99034 | 172.26899 | 23143 ft | 490 kts | 191° |
| 2026-05-08 02:33 | -45.02397 | 172.26327 | 22422 ft | 485 kts | 191° |
| 2026-05-08 02:34 | -45.05717 | 172.25762 | 21686 ft | 480 kts | 191° |
| 2026-05-08 02:34 | -45.09011 | 172.25202 | 20935 ft | 473 kts | 191° |
| 2026-05-08 02:34 | -45.12260 | 172.24647 | 20206 ft | 468 kts | 191° |
| 2026-05-08 02:34 | -45.15489 | 172.24090 | 19685 ft | 471 kts | 191° |
| 2026-05-08 02:35 | -45.18764 | 172.23522 | 19913 ft | 475 kts | 191° |
| 2026-05-08 02:35 | -45.22043 | 172.22963 | 20693 ft | 473 kts | 191° |
| 2026-05-08 02:35 | -45.25291 | 172.22413 | 21388 ft | 475 kts | 191° |
| 2026-05-08 02:35 | -45.28588 | 172.21851 | 21946 ft | 480 kts | 191° |
| 2026-05-08 02:36 | -45.31877 | 172.21288 | 22504 ft | 485 kts | 191° |
| 2026-05-08 02:36 | -45.35216 | 172.20715 | 23059 ft | 489 kts | 191° |
| 2026-05-08 02:36 | -45.38582 | 172.20136 | 23519 ft | 493 kts | 191° |
| 2026-05-08 02:36 | -45.41950 | 172.19558 | 23983 ft | 497 kts | 191° |
| 2026-05-08 02:37 | -45.45376 | 172.18969 | 24462 ft | 500 kts | 191° |
| 2026-05-08 02:37 | -45.48824 | 172.18375 | 24935 ft | 504 kts | 191° |
| 2026-05-08 02:37 | -45.52318 | 172.17771 | 25420 ft | 507 kts | 191° |
| 2026-05-08 02:37 | -45.55855 | 172.17158 | 25887 ft | 511 kts | 191° |
| 2026-05-08 02:38 | -45.59398 | 172.16544 | 26335 ft | 515 kts | 191° |
| 2026-05-08 02:38 | -45.62942 | 172.15929 | 26775 ft | 518 kts | 191° |
| 2026-05-08 02:38 | -45.66517 | 172.15307 | 27212 ft | 522 kts | 191° |
| 2026-05-08 02:38 | -45.70129 | 172.14678 | 27672 ft | 526 kts | 191° |
| 2026-05-08 02:39 | -45.73754 | 172.14049 | 28098 ft | 530 kts | 191° |
| 2026-05-08 02:39 | -45.76191 | 172.13624 | 28378 ft | 532 kts | 191° |
| 2026-05-08 02:40 | -45.76772 | 172.13523 | 28463 ft | 532 kts | 191° |
| 2026-05-08 02:40 | -45.79924 | 172.12974 | 28980 ft | 531 kts | 191° |
| 2026-05-08 02:40 | -45.83589 | 172.12336 | 29645 ft | 529 kts | 191° |
| 2026-05-08 02:41 | -45.87232 | 172.11702 | 30200 ft | 528 kts | 192° |
| 2026-05-08 02:41 | -45.90879 | 172.11068 | 30766 ft | 527 kts | 192° |
| 2026-05-08 02:41 | -45.94511 | 172.10436 | 31279 ft | 526 kts | 193° |
| 2026-05-08 02:41 | -45.98147 | 172.09798 | 31805 ft | 525 kts | 193° |
| 2026-05-08 02:42 | -46.01756 | 172.09162 | 32322 ft | 524 kts | 193° |
| 2026-05-08 02:42 | -46.05371 | 172.08524 | 32854 ft | 523 kts | 194° |
| 2026-05-08 02:42 | -46.08968 | 172.07889 | 33382 ft | 522 kts | 194° |
| 2026-05-08 02:42 | -46.12565 | 172.07255 | 33882 ft | 520 kts | 194° |
| 2026-05-08 02:43 | -46.16139 | 172.06621 | 34350 ft | 518 kts | 194° |
| 2026-05-08 02:43 | -46.19704 | 172.05984 | 34787 ft | 517 kts | 194° |
| 2026-05-08 02:43 | -46.23239 | 172.05352 | 35180 ft | 516 kts | 194° |
| 2026-05-08 02:43 | -46.26811 | 172.04713 | 35519 ft | 517 kts | 194° |
| 2026-05-08 02:44 | -46.30381 | 172.04074 | 35835 ft | 518 kts | 194° |
| 2026-05-08 02:44 | -46.33907 | 172.03444 | 36144 ft | 518 kts | 194° |
| 2026-05-08 02:44 | -46.37493 | 172.02803 | 36442 ft | 519 kts | 194° |
| 2026-05-08 02:44 | -46.41075 | 172.02162 | 36498 ft | 520 kts | 194° |
| 2026-05-08 02:45 | -46.48251 | 172.00879 | 36503 ft | 520 kts | 194° |
| 2026-05-08 02:45 | -46.55419 | 171.99594 | 36507 ft | 520 kts | 194° |
| 2026-05-08 02:46 | -46.62596 | 171.98303 | 36508 ft | 520 kts | 194° |
| 2026-05-08 02:46 | -46.69769 | 171.97009 | 36513 ft | 520 kts | 194° |
| 2026-05-08 02:47 | -46.76927 | 171.95716 | 36513 ft | 518 kts | 194° |
| 2026-05-08 02:47 | -46.84084 | 171.94418 | 36507 ft | 518 kts | 194° |
| 2026-05-08 02:48 | -46.91200 | 171.93124 | 36531 ft | 518 kts | 194° |
| 2026-05-08 02:48 | -46.98331 | 171.91825 | 36504 ft | 517 kts | 194° |
| 2026-05-08 02:49 | -47.05452 | 171.90522 | 36522 ft | 517 kts | 194° |
| 2026-05-08 02:49 | -47.12568 | 171.89217 | 36526 ft | 516 kts | 194° |
| 2026-05-08 02:50 | -47.19670 | 171.87912 | 36515 ft | 514 kts | 194° |
| 2026-05-08 02:50 | -47.26775 | 171.86603 | 36518 ft | 514 kts | 194° |
| 2026-05-08 02:51 | -47.33846 | 171.85296 | 36525 ft | 513 kts | 194° |
| 2026-05-08 02:51 | -47.40820 | 171.84005 | 36521 ft | 512 kts | 194° |
| 2026-05-08 02:52 | -47.47831 | 171.82701 | 36521 ft | 512 kts | 194° |
| 2026-05-08 02:52 | -47.54803 | 171.81405 | 36536 ft | 512 kts | 195° |
| 2026-05-08 02:53 | -47.61855 | 171.80087 | 36528 ft | 512 kts | 195° |
| 2026-05-08 02:53 | -47.68912 | 171.78764 | 36527 ft | 512 kts | 195° |
| 2026-05-08 02:54 | -47.75977 | 171.77439 | 36535 ft | 513 kts | 195° |
| 2026-05-08 02:54 | -47.83064 | 171.76103 | 36529 ft | 514 kts | 195° |
| 2026-05-08 02:55 | -47.93698 | 171.74092 | 36558 ft | 514 kts | 195° |
| 2026-05-08 02:56 | -48.00805 | 171.72747 | 36535 ft | 514 kts | 195° |
| 2026-05-08 02:56 | -48.07900 | 171.71396 | 36528 ft | 515 kts | 195° |
| 2026-05-08 02:57 | -48.14995 | 171.70042 | 36560 ft | 515 kts | 195° |
| 2026-05-08 02:57 | -48.22093 | 171.68686 | 36535 ft | 514 kts | 195° |
| 2026-05-08 02:58 | -48.29188 | 171.67325 | 36531 ft | 514 kts | 195° |
| 2026-05-08 02:58 | -48.36278 | 171.65961 | 36555 ft | 514 kts | 195° |
| 2026-05-08 02:59 | -48.43295 | 171.64611 | 36527 ft | 514 kts | 196° |
| 2026-05-08 02:59 | -48.50366 | 171.63242 | 36531 ft | 514 kts | 196° |
| 2026-05-08 03:00 | -48.57450 | 171.61866 | 36521 ft | 514 kts | 196° |
| 2026-05-08 03:00 | -48.64521 | 171.60491 | 36523 ft | 514 kts | 196° |
| 2026-05-08 03:01 | -48.71596 | 171.59111 | 36526 ft | 514 kts | 196° |
| 2026-05-08 03:01 | -48.78609 | 171.57740 | 36552 ft | 514 kts | 196° |
| 2026-05-08 03:02 | -48.85693 | 171.56355 | 36531 ft | 513 kts | 196° |
| 2026-05-08 03:02 | -48.92752 | 171.54964 | 36528 ft | 513 kts | 196° |
| 2026-05-08 03:03 | -48.99837 | 171.53565 | 36554 ft | 513 kts | 196° |
| 2026-05-08 03:03 | -49.06915 | 171.52168 | 36530 ft | 512 kts | 196° |
| 2026-05-08 03:04 | -49.12781 | 171.51004 | 36526 ft | 512 kts | 196° |
| 2026-05-08 03:04 | -49.19833 | 171.49600 | 36530 ft | 512 kts | 196° |
| 2026-05-08 03:05 | -49.26888 | 171.48200 | 36532 ft | 511 kts | 197° |
| 2026-05-08 03:05 | -49.33922 | 171.46790 | 36524 ft | 510 kts | 197° |
| 2026-05-08 03:06 | -49.40943 | 171.45378 | 36525 ft | 510 kts | 197° |
| 2026-05-08 03:06 | -49.47945 | 171.43971 | 36533 ft | 510 kts | 197° |
| 2026-05-08 03:07 | -49.54961 | 171.42554 | 36518 ft | 510 kts | 197° |
| 2026-05-08 03:07 | -49.62000 | 171.41128 | 36518 ft | 510 kts | 197° |
| 2026-05-08 03:08 | -49.69029 | 171.39699 | 36521 ft | 510 kts | 197° |
| 2026-05-08 03:08 | -49.76058 | 171.38267 | 36516 ft | 510 kts | 197° |
| 2026-05-08 03:09 | -49.83081 | 171.36832 | 36508 ft | 510 kts | 197° |
| 2026-05-08 03:09 | -49.90114 | 171.35387 | 36534 ft | 511 kts | 197° |
| 2026-05-08 03:10 | -49.97156 | 171.33938 | 36507 ft | 512 kts | 197° |
| 2026-05-08 03:10 | -50.04301 | 171.32968 | 36498 ft | 517 kts | 192° |
| 2026-05-08 03:11 | -50.11502 | 171.32451 | 36524 ft | 519 kts | 191° |
| 2026-05-08 03:11 | -50.18681 | 171.31953 | 36496 ft | 521 kts | 192° |
| 2026-05-08 03:12 | -50.25921 | 171.31426 | 36492 ft | 521 kts | 192° |
| 2026-05-08 03:12 | -50.33159 | 171.30885 | 36535 ft | 521 kts | 192° |
| 2026-05-08 03:13 | -50.40416 | 171.30339 | 36490 ft | 523 kts | 192° |
| 2026-05-08 03:13 | -50.47682 | 171.29787 | 36482 ft | 523 kts | 192° |
| 2026-05-08 03:14 | -50.54952 | 171.29233 | 36476 ft | 523 kts | 192° |
| 2026-05-08 03:14 | -50.62209 | 171.28686 | 36487 ft | 524 kts | 192° |
| 2026-05-08 03:15 | -50.69483 | 171.28126 | 36459 ft | 524 kts | 192° |
| 2026-05-08 03:15 | -50.76764 | 171.27565 | 36461 ft | 524 kts | 192° |
| 2026-05-08 03:16 | -50.84044 | 171.27004 | 36461 ft | 524 kts | 192° |
| 2026-05-08 03:16 | -50.91327 | 171.26441 | 36460 ft | 524 kts | 192° |
| 2026-05-08 03:17 | -50.98609 | 171.25876 | 36461 ft | 524 kts | 192° |
| 2026-05-08 03:17 | -51.05891 | 171.25312 | 36470 ft | 524 kts | 192° |
| 2026-05-08 03:18 | -51.13173 | 171.24744 | 36462 ft | 524 kts | 192° |
| 2026-05-08 03:18 | -51.20455 | 171.24174 | 36453 ft | 524 kts | 192° |
| 2026-05-08 03:19 | -51.27732 | 171.23604 | 36485 ft | 525 kts | 193° |
| 2026-05-08 03:19 | -51.35047 | 171.23027 | 36459 ft | 526 kts | 193° |
| 2026-05-08 03:20 | -51.42361 | 171.22449 | 36455 ft | 526 kts | 193° |
| 2026-05-08 03:20 | -51.49619 | 171.21874 | 36493 ft | 526 kts | 193° |
| 2026-05-08 03:21 | -51.56942 | 171.21291 | 36450 ft | 527 kts | 193° |
| 2026-05-08 03:21 | -51.64273 | 171.20707 | 36461 ft | 527 kts | 193° |
| 2026-05-08 03:22 | -51.71604 | 171.20121 | 36444 ft | 527 kts | 193° |
| 2026-05-08 03:22 | -51.78944 | 171.19531 | 36457 ft | 528 kts | 193° |
| 2026-05-08 03:23 | -51.86285 | 171.18941 | 36445 ft | 528 kts | 193° |
| 2026-05-08 03:23 | -51.93632 | 171.18347 | 36446 ft | 529 kts | 193° |
| 2026-05-08 03:24 | -52.00975 | 171.17760 | 36451 ft | 527 kts | 193° |
| 2026-05-08 03:24 | -52.08300 | 171.17162 | 36440 ft | 527 kts | 193° |
| 2026-05-08 03:25 | -52.15637 | 171.16560 | 36436 ft | 527 kts | 193° |
| 2026-05-08 03:25 | -52.22962 | 171.15964 | 36467 ft | 526 kts | 193° |
| 2026-05-08 03:26 | -52.30250 | 171.15369 | 36434 ft | 524 kts | 194° |
| 2026-05-08 03:26 | -52.37530 | 171.14765 | 36430 ft | 524 kts | 194° |
| 2026-05-08 03:27 | -52.44810 | 171.14160 | 36475 ft | 524 kts | 194° |
| 2026-05-08 03:27 | -52.52071 | 171.13560 | 36434 ft | 522 kts | 194° |
| 2026-05-08 03:28 | -52.59315 | 171.12956 | 36421 ft | 522 kts | 194° |
| 2026-05-08 03:28 | -52.66574 | 171.12349 | 36412 ft | 522 kts | 194° |
| 2026-05-08 03:29 | -52.73826 | 171.11739 | 36425 ft | 522 kts | 194° |
| 2026-05-08 03:29 | -52.81071 | 171.11131 | 36418 ft | 522 kts | 194° |
| 2026-05-08 03:30 | -52.91959 | 171.10213 | 36440 ft | 522 kts | 194° |
| 2026-05-08 03:31 | -53.06471 | 171.08979 | 36398 ft | 522 kts | 193° |
| 2026-05-08 03:32 | -53.17355 | 171.08052 | 36390 ft | 522 kts | 193° |
| 2026-05-08 03:32 | -53.24573 | 171.07433 | 36384 ft | 522 kts | 193° |
| 2026-05-08 03:33 | -53.31832 | 171.06808 | 36385 ft | 522 kts | 193° |
| 2026-05-08 03:33 | -53.39090 | 171.06182 | 36384 ft | 522 kts | 193° |
| 2026-05-08 03:34 | -53.46340 | 171.05548 | 36394 ft | 521 kts | 193° |
| 2026-05-08 03:34 | -53.53581 | 171.04921 | 36374 ft | 521 kts | 193° |
| 2026-05-08 03:35 | -53.60815 | 171.04292 | 36371 ft | 521 kts | 193° |
| 2026-05-08 03:35 | -53.68057 | 171.03656 | 36409 ft | 521 kts | 193° |
| 2026-05-08 03:36 | -53.75277 | 171.03019 | 36366 ft | 519 kts | 193° |
| 2026-05-08 03:36 | -53.82493 | 171.02387 | 36351 ft | 519 kts | 193° |
| 2026-05-08 03:37 | -53.89707 | 171.01750 | 36354 ft | 519 kts | 193° |
| 2026-05-08 03:37 | -53.96924 | 171.01106 | 36362 ft | 519 kts | 192° |
| 2026-05-08 03:38 | -54.04143 | 171.00464 | 36339 ft | 519 kts | 192° |
| 2026-05-08 03:38 | -54.11368 | 170.99826 | 36329 ft | 519 kts | 193° |
| 2026-05-08 03:39 | -54.18569 | 170.99179 | 36359 ft | 518 kts | 193° |
| 2026-05-08 03:39 | -54.25778 | 170.98524 | 36326 ft | 519 kts | 193° |
| 2026-05-08 03:40 | -54.32950 | 170.97877 | 36317 ft | 519 kts | 193° |
| 2026-05-08 03:40 | -54.40204 | 170.97220 | 36315 ft | 519 kts | 193° |
| 2026-05-08 03:41 | -54.47422 | 170.96562 | 36319 ft | 520 kts | 193° |
| 2026-05-08 03:41 | -54.54649 | 170.95902 | 36306 ft | 520 kts | 193° |
| 2026-05-08 03:42 | -54.61829 | 170.95244 | 36301 ft | 520 kts | 193° |
| 2026-05-08 03:42 | -54.69058 | 170.94579 | 36349 ft | 520 kts | 193° |
| 2026-05-08 03:43 | -54.76286 | 170.93910 | 36289 ft | 520 kts | 193° |
| 2026-05-08 03:43 | -54.83515 | 170.93239 | 36276 ft | 520 kts | 193° |
| 2026-05-08 03:44 | -54.90744 | 170.92563 | 36271 ft | 520 kts | 193° |
| 2026-05-08 03:44 | -54.97972 | 170.91884 | 36280 ft | 520 kts | 193° |
| 2026-05-08 03:45 | -55.05197 | 170.91186 | 36257 ft | 520 kts | 193° |
| 2026-05-08 03:45 | -55.12420 | 170.90451 | 36254 ft | 520 kts | 193° |
| 2026-05-08 03:46 | -55.19651 | 170.89708 | 36311 ft | 520 kts | 193° |
| 2026-05-08 03:46 | -55.26868 | 170.88965 | 36240 ft | 519 kts | 193° |
| 2026-05-08 03:47 | -55.34083 | 170.88219 | 36230 ft | 519 kts | 193° |
| 2026-05-08 03:47 | -55.41249 | 170.87475 | 36228 ft | 519 kts | 193° |
| 2026-05-08 03:48 | -55.48463 | 170.86722 | 36243 ft | 519 kts | 193° |
| 2026-05-08 03:48 | -55.55672 | 170.85969 | 36214 ft | 519 kts | 193° |
| 2026-05-08 03:49 | -55.62881 | 170.85214 | 36222 ft | 519 kts | 193° |
| 2026-05-08 03:49 | -55.70090 | 170.84456 | 36204 ft | 519 kts | 193° |
| 2026-05-08 03:50 | -55.77298 | 170.83694 | 36184 ft | 519 kts | 193° |
| 2026-05-08 03:50 | -55.84507 | 170.82930 | 36185 ft | 519 kts | 193° |
| 2026-05-08 03:51 | -55.91716 | 170.82162 | 36192 ft | 519 kts | 193° |
| 2026-05-08 03:51 | -55.97709 | 170.81522 | 36254 ft | 519 kts | 193° |
| 2026-05-08 03:52 | -56.04914 | 170.80747 | 36190 ft | 518 kts | 193° |
| 2026-05-08 03:52 | -56.12118 | 170.79974 | 36170 ft | 519 kts | 193° |
| 2026-05-08 03:53 | -56.19324 | 170.79197 | 36159 ft | 519 kts | 193° |
| 2026-05-08 03:53 | -56.26528 | 170.78414 | 36178 ft | 519 kts | 193° |
| 2026-05-08 03:54 | -56.33730 | 170.77631 | 36155 ft | 518 kts | 193° |
| 2026-05-08 03:54 | -56.41855 | 170.76750 | 36140 ft | 518 kts | 193° |
| 2026-05-08 03:55 | -56.49062 | 170.75958 | 36148 ft | 518 kts | 193° |
| 2026-05-08 03:55 | -56.56259 | 170.75160 | 36146 ft | 518 kts | 193° |
| 2026-05-08 03:56 | -56.63462 | 170.74365 | 36124 ft | 518 kts | 193° |
| 2026-05-08 03:56 | -56.70656 | 170.73568 | 36122 ft | 518 kts | 193° |
| 2026-05-08 03:57 | -56.77854 | 170.72767 | 36158 ft | 518 kts | 193° |
| 2026-05-08 03:57 | -56.85050 | 170.71961 | 36104 ft | 518 kts | 192° |
| 2026-05-08 03:58 | -56.92240 | 170.71155 | 36093 ft | 518 kts | 192° |
| 2026-05-08 03:58 | -56.99438 | 170.70345 | 36078 ft | 518 kts | 192° |
| 2026-05-08 03:59 | -57.06632 | 170.69529 | 36097 ft | 518 kts | 192° |
| 2026-05-08 03:59 | -57.13813 | 170.68714 | 36066 ft | 517 kts | 192° |
| 2026-05-08 04:00 | -57.21004 | 170.67896 | 36046 ft | 517 kts | 192° |
| 2026-05-08 04:00 | -57.28140 | 170.67081 | 36041 ft | 517 kts | 192° |
| 2026-05-08 04:01 | -57.35320 | 170.66253 | 36070 ft | 517 kts | 192° |
| 2026-05-08 04:01 | -57.42497 | 170.65427 | 36036 ft | 516 kts | 192° |
| 2026-05-08 04:02 | -57.49669 | 170.64598 | 36021 ft | 516 kts | 192° |
| 2026-05-08 04:02 | -57.55670 | 170.63901 | 36022 ft | 516 kts | 192° |
| 2026-05-08 04:03 | -57.62798 | 170.63067 | 36030 ft | 515 kts | 192° |
| 2026-05-08 04:03 | -57.73533 | 170.61811 | 36001 ft | 515 kts | 192° |
| 2026-05-08 04:04 | -57.80687 | 170.60970 | 35980 ft | 515 kts | 192° |
| 2026-05-08 04:04 | -57.87832 | 170.60123 | 36012 ft | 515 kts | 192° |
| 2026-05-08 04:05 | -57.94971 | 170.59274 | 35976 ft | 514 kts | 192° |
| 2026-05-08 04:05 | -58.02106 | 170.58426 | 35955 ft | 514 kts | 192° |
| 2026-05-08 04:06 | -58.09241 | 170.57573 | 35950 ft | 514 kts | 192° |
| 2026-05-08 04:06 | -58.16374 | 170.56712 | 35973 ft | 513 kts | 192° |
| 2026-05-08 04:07 | -58.23493 | 170.55854 | 35937 ft | 512 kts | 192° |
| 2026-05-08 04:07 | -58.30561 | 170.55001 | 35930 ft | 512 kts | 192° |
| 2026-05-08 04:08 | -58.37723 | 170.54130 | 35925 ft | 512 kts | 192° |
| 2026-05-08 04:08 | -58.44791 | 170.53267 | 35928 ft | 512 kts | 192° |
| 2026-05-08 04:09 | -58.51906 | 170.52395 | 35912 ft | 512 kts | 192° |
| 2026-05-08 04:09 | -58.59021 | 170.51519 | 35913 ft | 512 kts | 192° |
| 2026-05-08 04:10 | -58.66136 | 170.50640 | 35916 ft | 512 kts | 192° |
| 2026-05-08 04:10 | -58.73256 | 170.49752 | 35924 ft | 512 kts | 191° |
| 2026-05-08 04:11 | -58.80354 | 170.48869 | 35895 ft | 512 kts | 191° |
| 2026-05-08 04:11 | -58.87462 | 170.47986 | 35879 ft | 512 kts | 192° |
| 2026-05-08 04:12 | -58.94579 | 170.47090 | 35883 ft | 513 kts | 192° |
| 2026-05-08 04:12 | -59.01696 | 170.46186 | 35912 ft | 512 kts | 191° |
| 2026-05-08 04:13 | -59.08802 | 170.45287 | 35884 ft | 512 kts | 191° |
| 2026-05-08 04:13 | -59.15908 | 170.44384 | 35878 ft | 512 kts | 191° |
| 2026-05-08 04:14 | -59.23017 | 170.43477 | 35876 ft | 512 kts | 191° |
| 2026-05-08 04:14 | -59.30121 | 170.42561 | 35896 ft | 511 kts | 191° |
| 2026-05-08 04:15 | -59.37167 | 170.41655 | 35889 ft | 510 kts | 191° |
| 2026-05-08 04:15 | -59.44247 | 170.40740 | 35890 ft | 510 kts | 191° |
| 2026-05-08 04:16 | -59.51343 | 170.39818 | 35878 ft | 510 kts | 191° |
| 2026-05-08 04:16 | -59.58430 | 170.38888 | 35900 ft | 510 kts | 191° |
| 2026-05-08 04:17 | -59.65513 | 170.37961 | 35886 ft | 510 kts | 191° |
| 2026-05-08 04:17 | -59.72588 | 170.37030 | 35879 ft | 510 kts | 191° |
| 2026-05-08 04:18 | -59.79679 | 170.36091 | 35879 ft | 510 kts | 191° |
| 2026-05-08 04:18 | -59.86749 | 170.35145 | 35894 ft | 509 kts | 191° |
| 2026-05-08 04:19 | -59.93818 | 170.34199 | 35873 ft | 509 kts | 191° |
| 2026-05-08 04:19 | -60.00881 | 170.33252 | 35866 ft | 509 kts | 191° |
| 2026-05-08 04:20 | -60.07944 | 170.32310 | 35871 ft | 509 kts | 191° |
| 2026-05-08 04:20 | -60.15005 | 170.31354 | 35890 ft | 508 kts | 191° |
| 2026-05-08 04:21 | -60.22051 | 170.30394 | 35870 ft | 507 kts | 191° |
| 2026-05-08 04:21 | -60.29095 | 170.29428 | 35867 ft | 507 kts | 191° |
| 2026-05-08 04:22 | -60.36148 | 170.28455 | 35863 ft | 507 kts | 191° |
| 2026-05-08 04:22 | -60.43184 | 170.27476 | 35893 ft | 507 kts | 191° |
| 2026-05-08 04:23 | -60.50171 | 170.26504 | 35876 ft | 507 kts | 191° |
| 2026-05-08 04:23 | -60.57211 | 170.25521 | 35859 ft | 507 kts | 191° |
| 2026-05-08 04:24 | -60.64240 | 170.24535 | 35862 ft | 507 kts | 191° |
| 2026-05-08 04:24 | -60.71272 | 170.23540 | 35891 ft | 506 kts | 191° |
| 2026-05-08 04:25 | -60.78284 | 170.22546 | 35857 ft | 505 kts | 190° |
| 2026-05-08 04:25 | -60.85292 | 170.21551 | 35852 ft | 505 kts | 190° |
| 2026-05-08 04:26 | -60.92299 | 170.20550 | 35849 ft | 505 kts | 191° |
| 2026-05-08 04:26 | -60.99310 | 170.19542 | 35897 ft | 505 kts | 190° |
| 2026-05-08 04:27 | -61.06369 | 170.19322 | 35852 ft | 505 kts | 189° |
| 2026-05-08 04:27 | -61.13341 | 170.17995 | 35842 ft | 503 kts | 192° |
| 2026-05-08 04:28 | -61.20318 | 170.16660 | 35836 ft | 504 kts | 191° |
| 2026-05-08 04:28 | -61.27260 | 170.15526 | 35841 ft | 504 kts | 190° |
| 2026-05-08 04:29 | -61.34313 | 170.14457 | 35832 ft | 505 kts | 190° |
| 2026-05-08 04:29 | -61.41318 | 170.13418 | 35830 ft | 505 kts | 190° |
| 2026-05-08 04:30 | -61.48281 | 170.12390 | 35828 ft | 505 kts | 190° |
| 2026-05-08 04:30 | -61.55299 | 170.11343 | 35834 ft | 506 kts | 190° |
| 2026-05-08 04:31 | -61.62315 | 170.10293 | 35847 ft | 505 kts | 190° |
| 2026-05-08 04:31 | -61.69322 | 170.09242 | 35825 ft | 505 kts | 190° |
| 2026-05-08 04:32 | -61.76328 | 170.08185 | 35825 ft | 505 kts | 191° |
| 2026-05-08 04:32 | -61.83384 | 170.07116 | 35818 ft | 505 kts | 191° |
| 2026-05-08 04:33 | -61.90412 | 170.06041 | 35838 ft | 504 kts | 190° |
| 2026-05-08 04:33 | -61.97394 | 170.04975 | 35814 ft | 503 kts | 190° |
| 2026-05-08 04:34 | -62.04373 | 170.03905 | 35812 ft | 503 kts | 190° |
| 2026-05-08 04:34 | -62.11352 | 170.02828 | 35809 ft | 503 kts | 190° |
| 2026-05-08 04:35 | -62.18281 | 170.01753 | 35832 ft | 503 kts | 190° |
| 2026-05-08 04:35 | -62.25265 | 170.00661 | 35804 ft | 502 kts | 190° |
| 2026-05-08 04:36 | -62.32240 | 169.99573 | 35794 ft | 503 kts | 190° |
| 2026-05-08 04:36 | -62.39215 | 169.98478 | 35789 ft | 503 kts | 190° |
| 2026-05-08 04:37 | -62.46191 | 169.97376 | 35783 ft | 503 kts | 190° |
| 2026-05-08 04:37 | -62.53157 | 169.96266 | 35789 ft | 502 kts | 190° |
| 2026-05-08 04:38 | -62.60135 | 169.95156 | 35778 ft | 502 kts | 190° |
| 2026-05-08 04:38 | -62.67097 | 169.94043 | 35767 ft | 502 kts | 190° |
| 2026-05-08 04:39 | -62.74066 | 169.92921 | 35764 ft | 502 kts | 190° |
| 2026-05-08 04:39 | -62.81034 | 169.91790 | 35772 ft | 502 kts | 189° |
| 2026-05-08 04:40 | -62.87994 | 169.90660 | 35761 ft | 501 kts | 189° |
| 2026-05-08 04:40 | -62.94953 | 169.89526 | 35748 ft | 501 kts | 189° |
| 2026-05-08 04:41 | -63.01874 | 169.88392 | 35742 ft | 501 kts | 189° |
| 2026-05-08 04:41 | -63.08831 | 169.87244 | 35782 ft | 501 kts | 189° |
| 2026-05-08 04:42 | -63.15782 | 169.86088 | 35745 ft | 501 kts | 189° |
| 2026-05-08 04:42 | -63.22729 | 169.84936 | 35740 ft | 501 kts | 189° |
| 2026-05-08 04:43 | -63.29675 | 169.83776 | 35737 ft | 500 kts | 189° |
| 2026-05-08 04:43 | -63.36620 | 169.82609 | 35739 ft | 500 kts | 189° |
| 2026-05-08 04:44 | -63.43569 | 169.81431 | 35752 ft | 500 kts | 189° |
| 2026-05-08 04:44 | -63.50497 | 169.80258 | 35757 ft | 500 kts | 189° |
| 2026-05-08 04:45 | -63.57432 | 169.79077 | 35754 ft | 500 kts | 189° |
| 2026-05-08 04:45 | -63.64369 | 169.77889 | 35762 ft | 500 kts | 189° |
| 2026-05-08 04:46 | -63.71331 | 169.76687 | 35788 ft | 500 kts | 189° |
| 2026-05-08 04:46 | -63.78257 | 169.75487 | 35773 ft | 499 kts | 189° |
| 2026-05-08 04:47 | -63.85177 | 169.74287 | 35763 ft | 499 kts | 189° |
| 2026-05-08 04:47 | -63.92105 | 169.73077 | 35773 ft | 499 kts | 189° |
| 2026-05-08 04:48 | -63.98976 | 169.71870 | 35775 ft | 499 kts | 189° |
| 2026-05-08 04:48 | -64.05890 | 169.70645 | 35787 ft | 499 kts | 189° |
| 2026-05-08 04:49 | -64.12810 | 169.69420 | 35783 ft | 499 kts | 189° |
| 2026-05-08 04:49 | -64.19734 | 169.68189 | 35769 ft | 499 kts | 189° |
| 2026-05-08 04:50 | -64.26670 | 169.66946 | 35782 ft | 500 kts | 189° |
| 2026-05-08 04:50 | -64.33607 | 169.65695 | 35783 ft | 500 kts | 189° |
| 2026-05-08 04:51 | -64.40546 | 169.64438 | 35790 ft | 500 kts | 189° |
| 2026-05-08 04:51 | -64.47484 | 169.63176 | 35790 ft | 500 kts | 189° |
| 2026-05-08 04:52 | -64.54415 | 169.61908 | 35788 ft | 500 kts | 189° |
| 2026-05-08 04:52 | -64.60182 | 169.60847 | 35787 ft | 500 kts | 189° |
| 2026-05-08 04:53 | -64.67119 | 169.59561 | 35799 ft | 500 kts | 189° |
| 2026-05-08 04:53 | -64.74055 | 169.58274 | 35795 ft | 500 kts | 189° |
| 2026-05-08 04:54 | -64.80994 | 169.56978 | 35791 ft | 500 kts | 189° |
| 2026-05-08 04:54 | -64.87929 | 169.55673 | 35803 ft | 500 kts | 189° |
| 2026-05-08 04:55 | -64.94864 | 169.54355 | 35831 ft | 500 kts | 188° |
| 2026-05-08 04:55 | -65.01784 | 169.53039 | 35805 ft | 500 kts | 188° |
| 2026-05-08 04:56 | -65.08713 | 169.51712 | 35799 ft | 500 kts | 188° |
| 2026-05-08 04:56 | -65.15642 | 169.50363 | 35798 ft | 500 kts | 188° |
| 2026-05-08 04:57 | -65.22571 | 169.49000 | 35796 ft | 500 kts | 189° |
| 2026-05-08 04:57 | -65.29496 | 169.47624 | 35808 ft | 499 kts | 188° |
| 2026-05-08 04:58 | -65.36368 | 169.46256 | 35799 ft | 499 kts | 188° |
| 2026-05-08 04:58 | -65.43285 | 169.44874 | 35799 ft | 499 kts | 188° |
| 2026-05-08 04:59 | -65.50196 | 169.43483 | 35798 ft | 499 kts | 188° |
| 2026-05-08 04:59 | -65.57117 | 169.42083 | 35826 ft | 499 kts | 188° |
| 2026-05-08 05:00 | -65.64024 | 169.40675 | 35799 ft | 498 kts | 188° |
| 2026-05-08 05:00 | -65.70929 | 169.39265 | 35802 ft | 498 kts | 188° |
| 2026-05-08 05:01 | -65.77834 | 169.37845 | 35798 ft | 498 kts | 188° |
| 2026-05-08 05:01 | -65.84737 | 169.36419 | 35798 ft | 498 kts | 188° |
| 2026-05-08 05:02 | -65.91630 | 169.34983 | 35818 ft | 497 kts | 188° |
| 2026-05-08 05:02 | -65.98514 | 169.33545 | 35802 ft | 496 kts | 188° |
| 2026-05-08 05:03 | -66.05394 | 169.32101 | 35804 ft | 496 kts | 188° |
| 2026-05-08 05:03 | -66.12274 | 169.30648 | 35800 ft | 496 kts | 188° |
| 2026-05-08 05:04 | -66.19153 | 169.29188 | 35806 ft | 496 kts | 188° |
| 2026-05-08 05:04 | -66.26029 | 169.27715 | 35808 ft | 495 kts | 188° |
| 2026-05-08 05:05 | -66.32842 | 169.26253 | 35799 ft | 495 kts | 188° |
| 2026-05-08 05:05 | -66.39701 | 169.24774 | 35803 ft | 495 kts | 188° |
| 2026-05-08 05:06 | -66.46550 | 169.23288 | 35803 ft | 495 kts | 188° |
| 2026-05-08 05:06 | -66.53415 | 169.21789 | 35827 ft | 494 kts | 188° |
| 2026-05-08 05:07 | -66.60251 | 169.20286 | 35805 ft | 493 kts | 188° |
| 2026-05-08 05:07 | -66.67088 | 169.18778 | 35802 ft | 493 kts | 188° |
| 2026-05-08 05:08 | -66.73924 | 169.17262 | 35805 ft | 493 kts | 188° |
| 2026-05-08 05:08 | -66.80767 | 169.15735 | 35805 ft | 493 kts | 188° |
| 2026-05-08 05:09 | -66.87592 | 169.14201 | 35814 ft | 492 kts | 188° |
| 2026-05-08 05:09 | -66.94405 | 169.12663 | 35798 ft | 491 kts | 188° |
| 2026-05-08 05:10 | -67.04613 | 169.10344 | 35802 ft | 491 kts | 188° |
| 2026-05-08 05:11 | -67.11424 | 169.08790 | 35786 ft | 492 kts | 188° |
| 2026-05-08 05:11 | -67.18247 | 169.07217 | 35819 ft | 492 kts | 188° |
| 2026-05-08 05:12 | -67.25058 | 169.05637 | 35794 ft | 491 kts | 188° |
| 2026-05-08 05:12 | -67.31861 | 169.04053 | 35797 ft | 491 kts | 188° |
| 2026-05-08 05:13 | -67.38618 | 169.02471 | 35798 ft | 491 kts | 188° |
| 2026-05-08 05:13 | -67.45465 | 169.00859 | 35788 ft | 491 kts | 188° |
| 2026-05-08 05:14 | -67.52217 | 168.99259 | 35792 ft | 491 kts | 188° |
| 2026-05-08 05:14 | -67.59019 | 168.97639 | 35795 ft | 491 kts | 188° |
| 2026-05-08 05:15 | -67.65822 | 168.96009 | 35803 ft | 491 kts | 188° |
| 2026-05-08 05:15 | -67.72625 | 168.94369 | 35794 ft | 491 kts | 188° |
| 2026-05-08 05:16 | -67.79435 | 168.92718 | 35804 ft | 491 kts | 188° |
| 2026-05-08 05:16 | -67.86234 | 168.91058 | 35819 ft | 490 kts | 188° |
| 2026-05-08 05:17 | -67.93021 | 168.89394 | 35793 ft | 490 kts | 188° |
| 2026-05-08 05:17 | -67.99798 | 168.87723 | 35797 ft | 490 kts | 188° |
| 2026-05-08 05:18 | -68.06574 | 168.86042 | 35803 ft | 490 kts | 188° |
| 2026-05-08 05:18 | -68.13358 | 168.84348 | 35803 ft | 490 kts | 188° |
| 2026-05-08 05:19 | -68.20092 | 168.82656 | 35813 ft | 489 kts | 188° |
| 2026-05-08 05:19 | -68.26902 | 168.80936 | 35811 ft | 488 kts | 188° |
| 2026-05-08 05:20 | -68.33619 | 168.79229 | 35807 ft | 488 kts | 188° |
| 2026-05-08 05:20 | -68.40383 | 168.77500 | 35815 ft | 488 kts | 188° |
| 2026-05-08 05:21 | -68.47145 | 168.75761 | 35813 ft | 488 kts | 188° |
| 2026-05-08 05:21 | -68.53904 | 168.74012 | 35826 ft | 487 kts | 188° |
| 2026-05-08 05:22 | -68.60654 | 168.72255 | 35818 ft | 487 kts | 188° |
| 2026-05-08 05:22 | -68.67401 | 168.70488 | 35829 ft | 487 kts | 188° |
| 2026-05-08 05:23 | -68.74148 | 168.68711 | 35828 ft | 487 kts | 188° |
| 2026-05-08 05:23 | -68.80897 | 168.66922 | 35840 ft | 487 kts | 188° |
| 2026-05-08 05:24 | -68.87641 | 168.65125 | 35847 ft | 487 kts | 188° |
| 2026-05-08 05:24 | -68.94379 | 168.63315 | 35845 ft | 486 kts | 188° |
| 2026-05-08 05:25 | -69.01109 | 168.61497 | 35846 ft | 486 kts | 188° |
| 2026-05-08 05:25 | -69.07848 | 168.59666 | 35855 ft | 486 kts | 188° |
| 2026-05-08 05:26 | -69.14541 | 168.57836 | 35854 ft | 486 kts | 188° |
| 2026-05-08 05:26 | -69.21279 | 168.55987 | 35868 ft | 487 kts | 188° |
| 2026-05-08 05:27 | -69.28017 | 168.54120 | 35863 ft | 487 kts | 188° |
| 2026-05-08 05:27 | -69.34768 | 168.52236 | 35875 ft | 487 kts | 188° |
| 2026-05-08 05:28 | -69.41511 | 168.50347 | 35876 ft | 487 kts | 188° |
| 2026-05-08 05:28 | -69.48250 | 168.48444 | 35885 ft | 487 kts | 188° |
| 2026-05-08 05:29 | -69.55000 | 168.46534 | 35885 ft | 487 kts | 189° |
| 2026-05-08 05:29 | -69.61752 | 168.44594 | 35895 ft | 488 kts | 189° |
| 2026-05-08 05:30 | -69.68504 | 168.42646 | 35891 ft | 488 kts | 189° |
| 2026-05-08 05:30 | -69.75250 | 168.40690 | 35904 ft | 488 kts | 189° |
| 2026-05-08 05:31 | -69.82012 | 168.38714 | 35901 ft | 488 kts | 189° |
| 2026-05-08 05:31 | -69.88765 | 168.36733 | 35919 ft | 488 kts | 189° |
| 2026-05-08 05:32 | -69.95510 | 168.34726 | 35915 ft | 488 kts | 189° |
| 2026-05-08 05:32 | -70.02258 | 168.32739 | 35922 ft | 488 kts | 188° |
| 2026-05-08 05:33 | -70.08975 | 168.30872 | 35921 ft | 488 kts | 189° |
| 2026-05-08 05:33 | -70.15739 | 168.28988 | 35923 ft | 488 kts | 189° |
| 2026-05-08 05:34 | -70.22501 | 168.27066 | 35938 ft | 487 kts | 189° |
| 2026-05-08 05:34 | -70.29255 | 168.25125 | 35940 ft | 488 kts | 189° |
| 2026-05-08 05:35 | -70.36010 | 168.23167 | 35937 ft | 488 kts | 189° |
| 2026-05-08 05:35 | -70.42762 | 168.21204 | 35942 ft | 488 kts | 189° |
| 2026-05-08 05:36 | -70.49541 | 168.19209 | 36066 ft | 493 kts | 189° |
| 2026-05-08 05:36 | -70.52944 | 168.18193 | 36559 ft | 490 kts | 189° |
| 2026-05-08 05:36 | -70.56321 | 168.17191 | 36924 ft | 485 kts | 188° |
| 2026-05-08 05:37 | -70.63020 | 168.15209 | 36954 ft | 483 kts | 188° |
| 2026-05-08 05:37 | -70.69704 | 168.13214 | 36954 ft | 483 kts | 189° |
| 2026-05-08 05:38 | -70.76382 | 168.11202 | 36953 ft | 483 kts | 188° |
| 2026-05-08 05:38 | -70.83065 | 168.09176 | 36956 ft | 482 kts | 189° |
| 2026-05-08 05:39 | -70.89748 | 168.07134 | 36953 ft | 482 kts | 188° |
| 2026-05-08 05:39 | -70.96427 | 168.05082 | 36957 ft | 482 kts | 189° |
| 2026-05-08 05:40 | -71.03101 | 168.03018 | 36962 ft | 483 kts | 188° |
| 2026-05-08 05:40 | -71.09784 | 168.00936 | 36961 ft | 483 kts | 189° |
| 2026-05-08 05:41 | -71.16459 | 167.98842 | 36957 ft | 483 kts | 189° |
| 2026-05-08 05:41 | -71.23079 | 167.96731 | 36955 ft | 479 kts | 188° |
| 2026-05-08 05:42 | -71.29703 | 167.94634 | 36949 ft | 478 kts | 188° |
| 2026-05-08 05:42 | -71.36326 | 167.92521 | 36934 ft | 478 kts | 188° |
| 2026-05-08 05:43 | -71.42948 | 167.90388 | 36933 ft | 478 kts | 188° |
| 2026-05-08 05:43 | -71.49570 | 167.88238 | 36925 ft | 478 kts | 188° |
| 2026-05-08 05:44 | -71.55119 | 167.86423 | 36933 ft | 478 kts | 188° |
| 2026-05-08 05:44 | -71.61690 | 167.84261 | 36932 ft | 478 kts | 188° |
| 2026-05-08 05:45 | -71.68304 | 167.82074 | 36931 ft | 478 kts | 188° |
| 2026-05-08 05:45 | -71.74923 | 167.79868 | 36971 ft | 478 kts | 188° |
| 2026-05-08 05:46 | -71.81535 | 167.77648 | 36968 ft | 478 kts | 188° |
| 2026-05-08 05:46 | -71.88147 | 167.75410 | 37043 ft | 478 kts | 188° |
| 2026-05-08 05:47 | -71.94750 | 167.73159 | 36993 ft | 477 kts | 188° |
| 2026-05-08 05:47 | -72.01336 | 167.70903 | 37052 ft | 477 kts | 188° |
| 2026-05-08 05:48 | -72.07933 | 167.68625 | 37048 ft | 477 kts | 188° |
| 2026-05-08 05:48 | -72.14534 | 167.66327 | 37050 ft | 477 kts | 188° |
| 2026-05-08 05:49 | -72.21124 | 167.64018 | 37091 ft | 477 kts | 188° |
| 2026-05-08 05:49 | -72.27714 | 167.61688 | 37093 ft | 476 kts | 188° |
| 2026-05-08 05:50 | -72.34295 | 167.59350 | 37089 ft | 476 kts | 188° |
| 2026-05-08 05:50 | -72.40830 | 167.57011 | 37089 ft | 475 kts | 188° |
| 2026-05-08 05:51 | -72.47408 | 167.54638 | 37065 ft | 475 kts | 188° |
| 2026-05-08 05:51 | -72.53987 | 167.52247 | 37065 ft | 475 kts | 188° |
| 2026-05-08 05:52 | -72.60563 | 167.49835 | 37053 ft | 475 kts | 188° |
| 2026-05-08 05:52 | -72.67131 | 167.47414 | 37051 ft | 475 kts | 188° |
| 2026-05-08 05:53 | -72.73697 | 167.44977 | 37052 ft | 475 kts | 188° |
| 2026-05-08 05:53 | -72.80263 | 167.42520 | 37051 ft | 475 kts | 188° |
| 2026-05-08 05:54 | -72.86829 | 167.40044 | 37075 ft | 475 kts | 188° |
| 2026-05-08 05:54 | -72.93393 | 167.37547 | 37082 ft | 474 kts | 188° |
| 2026-05-08 05:55 | -72.99948 | 167.35037 | 37107 ft | 474 kts | 188° |
| 2026-05-08 05:55 | -73.06509 | 167.32508 | 37105 ft | 474 kts | 188° |
| 2026-05-08 05:56 | -73.13059 | 167.29963 | 37144 ft | 474 kts | 188° |
| 2026-05-08 05:56 | -73.19610 | 167.27398 | 37153 ft | 474 kts | 188° |
| 2026-05-08 05:57 | -73.26159 | 167.24815 | 37178 ft | 474 kts | 188° |
| 2026-05-08 05:57 | -73.32726 | 167.22198 | 37157 ft | 473 kts | 188° |
| 2026-05-08 05:58 | -73.39267 | 167.19578 | 37176 ft | 473 kts | 188° |
| 2026-05-08 05:58 | -73.45809 | 167.16938 | 37171 ft | 473 kts | 188° |
| 2026-05-08 05:59 | -73.52302 | 167.14295 | 37167 ft | 473 kts | 188° |
| 2026-05-08 05:59 | -73.58838 | 167.11614 | 37154 ft | 473 kts | 188° |
| 2026-05-08 06:00 | -73.65367 | 167.08910 | 37168 ft | 472 kts | 188° |
| 2026-05-08 06:00 | -73.71891 | 167.06192 | 37168 ft | 472 kts | 188° |
| 2026-05-08 06:01 | -73.78416 | 167.03453 | 37174 ft | 472 kts | 188° |
| 2026-05-08 06:01 | -73.84937 | 167.00691 | 37174 ft | 472 kts | 188° |
| 2026-05-08 06:02 | -73.91446 | 166.97912 | 37165 ft | 472 kts | 188° |
| 2026-05-08 06:02 | -73.97969 | 166.95101 | 37172 ft | 472 kts | 188° |
| 2026-05-08 06:03 | -74.04483 | 166.92266 | 37159 ft | 471 kts | 188° |
| 2026-05-08 06:03 | -74.11004 | 166.89404 | 37164 ft | 471 kts | 188° |
| 2026-05-08 06:04 | -74.17517 | 166.86537 | 37154 ft | 471 kts | 188° |
| 2026-05-08 06:04 | -74.24029 | 166.83809 | 37155 ft | 471 kts | 187° |
| 2026-05-08 06:05 | -74.30546 | 166.81074 | 37159 ft | 471 kts | 188° |
| 2026-05-08 06:05 | -74.37065 | 166.78294 | 37159 ft | 471 kts | 188° |
| 2026-05-08 06:06 | -74.43579 | 166.75484 | 37155 ft | 471 kts | 188° |
| 2026-05-08 06:06 | -74.50092 | 166.72648 | 37160 ft | 471 kts | 188° |
| 2026-05-08 06:07 | -74.56603 | 166.69789 | 37155 ft | 471 kts | 188° |
| 2026-05-08 06:07 | -74.63110 | 166.66908 | 37157 ft | 471 kts | 188° |
| 2026-05-08 06:08 | -74.69619 | 166.63999 | 37163 ft | 471 kts | 188° |
| 2026-05-08 06:08 | -74.76125 | 166.61068 | 37159 ft | 470 kts | 188° |
| 2026-05-08 06:09 | -74.82619 | 166.58117 | 37154 ft | 470 kts | 188° |
| 2026-05-08 06:09 | -74.89078 | 166.55152 | 37151 ft | 470 kts | 188° |
| 2026-05-08 06:10 | -74.95578 | 166.52137 | 37154 ft | 470 kts | 188° |
| 2026-05-08 06:10 | -75.02073 | 166.49083 | 37152 ft | 471 kts | 188° |
| 2026-05-08 06:11 | -75.08571 | 166.45829 | 37156 ft | 470 kts | 188° |
| 2026-05-08 06:11 | -75.15060 | 166.42520 | 37150 ft | 470 kts | 188° |
| 2026-05-08 06:12 | -75.21539 | 166.39189 | 37156 ft | 470 kts | 188° |
| 2026-05-08 06:12 | -75.28034 | 166.35823 | 37151 ft | 470 kts | 188° |
| 2026-05-08 06:13 | -75.34511 | 166.32439 | 37146 ft | 470 kts | 188° |
| 2026-05-08 06:13 | -75.40996 | 166.29020 | 37155 ft | 470 kts | 188° |
| 2026-05-08 06:14 | -75.47483 | 166.25570 | 37151 ft | 470 kts | 188° |
| 2026-05-08 06:14 | -75.53965 | 166.22092 | 37145 ft | 470 kts | 189° |
| 2026-05-08 06:15 | -75.60447 | 166.18583 | 37141 ft | 470 kts | 189° |
| 2026-05-08 06:15 | -75.66927 | 166.15043 | 37144 ft | 470 kts | 189° |
| 2026-05-08 06:16 | -75.73406 | 166.11472 | 37141 ft | 470 kts | 189° |
| 2026-05-08 06:16 | -75.79879 | 166.07870 | 37144 ft | 470 kts | 189° |
| 2026-05-08 06:17 | -75.89593 | 166.02404 | 37135 ft | 470 kts | 189° |
| 2026-05-08 06:17 | -75.96055 | 165.98724 | 37131 ft | 469 kts | 189° |
| 2026-05-08 06:18 | -76.02519 | 165.95006 | 37131 ft | 469 kts | 189° |
| 2026-05-08 06:18 | -76.08946 | 165.91271 | 37132 ft | 469 kts | 189° |
| 2026-05-08 06:19 | -76.15418 | 165.87470 | 37136 ft | 469 kts | 189° |
| 2026-05-08 06:19 | -76.21882 | 165.83672 | 37131 ft | 469 kts | 189° |
| 2026-05-08 06:20 | -76.28344 | 165.79863 | 37129 ft | 469 kts | 189° |
| 2026-05-08 06:20 | -76.34804 | 165.75998 | 37129 ft | 469 kts | 189° |
| 2026-05-08 06:21 | -76.41267 | 165.72085 | 37123 ft | 469 kts | 189° |
| 2026-05-08 06:21 | -76.47715 | 165.68139 | 36874 ft | 465 kts | 189° |
| 2026-05-08 06:22 | -76.50901 | 165.66173 | 35900 ft | 464 kts | 189° |
| 2026-05-08 06:22 | -76.54130 | 165.64169 | 34884 ft | 471 kts | 189° |
| 2026-05-08 06:22 | -76.57367 | 165.62155 | 34364 ft | 469 kts | 189° |
| 2026-05-08 06:22 | -76.60600 | 165.60133 | 33810 ft | 468 kts | 189° |
| 2026-05-08 06:23 | -76.63827 | 165.58106 | 33265 ft | 468 kts | 189° |
| 2026-05-08 06:23 | -76.67045 | 165.56075 | 32627 ft | 467 kts | 189° |
| 2026-05-08 06:23 | -76.70254 | 165.54042 | 32012 ft | 466 kts | 189° |
| 2026-05-08 06:23 | -76.73458 | 165.52003 | 31425 ft | 464 kts | 189° |
| 2026-05-08 06:24 | -76.76643 | 165.49964 | 30834 ft | 462 kts | 189° |
| 2026-05-08 06:24 | -76.79822 | 165.47918 | 30291 ft | 460 kts | 189° |
| 2026-05-08 06:24 | -76.82971 | 165.45880 | 29790 ft | 456 kts | 189° |
| 2026-05-08 06:24 | -76.86100 | 165.43842 | 29309 ft | 452 kts | 189° |
| 2026-05-08 06:25 | -76.89201 | 165.41814 | 28755 ft | 450 kts | 189° |
| 2026-05-08 06:25 | -76.92307 | 165.39767 | 28225 ft | 451 kts | 189° |
| 2026-05-08 06:25 | -76.95408 | 165.37714 | 27720 ft | 451 kts | 189° |
| 2026-05-08 06:25 | -76.98510 | 165.35653 | 27207 ft | 448 kts | 189° |
| 2026-05-08 06:26 | -77.01567 | 165.33613 | 26732 ft | 443 kts | 189° |
| 2026-05-08 06:26 | -77.04604 | 165.31578 | 26432 ft | 440 kts | 189° |
| 2026-05-08 06:26 | -77.07591 | 165.29566 | 26140 ft | 438 kts | 189° |
| 2026-05-08 06:26 | -77.10637 | 165.27508 | 25857 ft | 436 kts | 189° |
| 2026-05-08 06:27 | -77.13594 | 165.25525 | 25519 ft | 434 kts | 188° |
| 2026-05-08 06:27 | -77.16590 | 165.24984 | 25137 ft | 431 kts | 177° |
| 2026-05-08 06:27 | -77.19589 | 165.26967 | 24753 ft | 429 kts | 167° |
| 2026-05-08 06:27 | -77.22372 | 165.31036 | 24390 ft | 425 kts | 160° |
| 2026-05-08 06:28 | -77.25115 | 165.35920 | 24021 ft | 421 kts | 158° |
| 2026-05-08 06:28 | -77.27811 | 165.40898 | 23618 ft | 418 kts | 158° |
| 2026-05-08 06:28 | -77.30497 | 165.45868 | 23223 ft | 415 kts | 158° |
| 2026-05-08 06:28 | -77.33161 | 165.50779 | 22825 ft | 412 kts | 158° |
| 2026-05-08 06:29 | -77.35813 | 165.55658 | 22366 ft | 409 kts | 158° |
| 2026-05-08 06:29 | -77.38436 | 165.60485 | 21941 ft | 405 kts | 158° |
| 2026-05-08 06:29 | -77.41036 | 165.65278 | 21527 ft | 401 kts | 158° |
| 2026-05-08 06:29 | -77.43618 | 165.70051 | 21122 ft | 397 kts | 158° |
| 2026-05-08 06:30 | -77.46167 | 165.74779 | 20721 ft | 394 kts | 158° |
| 2026-05-08 06:30 | -77.48699 | 165.79495 | 20322 ft | 390 kts | 158° |
| 2026-05-08 06:30 | -77.51204 | 165.84181 | 19922 ft | 387 kts | 158° |
| 2026-05-08 06:30 | -77.53697 | 165.88860 | 19527 ft | 385 kts | 158° |
| 2026-05-08 06:31 | -77.56172 | 165.93526 | 19118 ft | 382 kts | 158° |
| 2026-05-08 06:31 | -77.58625 | 165.98169 | 18732 ft | 380 kts | 158° |
| 2026-05-08 06:31 | -77.60239 | 166.01236 | 18465 ft | 378 kts | 158° |
| 2026-05-08 06:31 | -77.62661 | 166.05844 | 18043 ft | 376 kts | 158° |
| 2026-05-08 06:32 | -77.65074 | 166.10458 | 17628 ft | 373 kts | 158° |
| 2026-05-08 06:32 | -77.67461 | 166.15053 | 17204 ft | 370 kts | 158° |
| 2026-05-08 06:32 | -77.69834 | 166.19642 | 16776 ft | 367 kts | 158° |
| 2026-05-08 06:32 | -77.72182 | 166.24137 | 16366 ft | 363 kts | 159° |
| 2026-05-08 06:33 | -77.74539 | 166.28274 | 15976 ft | 359 kts | 160° |
| 2026-05-08 06:33 | -77.76892 | 166.32271 | 15580 ft | 356 kts | 161° |
| 2026-05-08 06:33 | -77.79213 | 166.36203 | 15193 ft | 353 kts | 161° |
| 2026-05-08 06:33 | -77.81516 | 166.40124 | 14807 ft | 350 kts | 161° |
| 2026-05-08 06:34 | -77.83798 | 166.44030 | 14421 ft | 347 kts | 161° |
| 2026-05-08 06:34 | -77.86064 | 166.47929 | 14044 ft | 345 kts | 161° |
| 2026-05-08 06:34 | -77.88316 | 166.51824 | 13663 ft | 343 kts | 161° |
| 2026-05-08 06:34 | -77.90548 | 166.55700 | 13285 ft | 341 kts | 161° |
| 2026-05-08 06:35 | -77.92765 | 166.59565 | 12902 ft | 338 kts | 161° |
| 2026-05-08 06:35 | -77.94968 | 166.63423 | 12485 ft | 336 kts | 161° |
| 2026-05-08 06:35 | -77.97155 | 166.67269 | 12098 ft | 333 kts | 161° |
| 2026-05-08 06:35 | -77.99319 | 166.71089 | 11705 ft | 330 kts | 161° |
| 2026-05-08 06:36 | -78.01426 | 166.74819 | 11447 ft | 322 kts | 161° |
| 2026-05-08 06:36 | -78.03506 | 166.78518 | 11378 ft | 308 kts | 161° |
| 2026-05-08 06:36 | -78.05454 | 166.81991 | 11282 ft | 295 kts | 161° |
| 2026-05-08 06:36 | -78.07342 | 166.85366 | 11189 ft | 283 kts | 161° |
| 2026-05-08 06:37 | -78.09151 | 166.88608 | 11088 ft | 271 kts | 161° |
| 2026-05-08 06:37 | -78.10885 | 166.91729 | 10992 ft | 259 kts | 161° |
| 2026-05-08 06:37 | -78.12535 | 166.94709 | 10926 ft | 247 kts | 161° |
| 2026-05-08 06:37 | -78.14109 | 166.97563 | 10847 ft | 235 kts | 161° |
| 2026-05-08 06:38 | -78.15599 | 167.00273 | 10781 ft | 227 kts | 161° |
| 2026-05-08 06:38 | -78.17078 | 167.02961 | 10709 ft | 226 kts | 161° |
| 2026-05-08 06:38 | -78.18548 | 167.05638 | 10642 ft | 226 kts | 162° |
| 2026-05-08 06:38 | -78.20078 | 167.06858 | 10369 ft | 223 kts | 187° |
| 2026-05-08 06:39 | -78.21518 | 167.04308 | 10133 ft | 223 kts | 214° |
| 2026-05-08 06:39 | -78.22543 | 166.98581 | 9872 ft | 228 kts | 241° |
| 2026-05-08 06:39 | -78.22970 | 166.91014 | 9620 ft | 232 kts | 256° |
| 2026-05-08 06:39 | -78.22886 | 166.83037 | 9313 ft | 242 kts | 285° |
| 2026-05-08 06:40 | -78.22036 | 166.75837 | 9042 ft | 246 kts | 300° |
| 2026-05-08 06:40 | -78.21027 | 166.69059 | 8708 ft | 246 kts | 301° |
| 2026-05-08 06:40 | -78.20014 | 166.62351 | 8429 ft | 244 kts | 301° |
| 2026-05-08 06:40 | -78.19014 | 166.55628 | 8145 ft | 243 kts | 300° |
| 2026-05-08 06:41 | -78.17825 | 166.49729 | 7813 ft | 250 kts | 329° |
| 2026-05-08 06:41 | -78.16133 | 166.47955 | 7542 ft | 255 kts | 6° |
| 2026-05-08 06:41 | -78.14485 | 166.50849 | 7279 ft | 253 kts | 40° |
| 2026-05-08 06:41 | -78.13403 | 166.57300 | 7013 ft | 244 kts | 73° |
| 2026-05-08 06:42 | -78.13143 | 166.65171 | 6758 ft | 231 kts | 104° |
| 2026-05-08 06:42 | -78.13663 | 166.72264 | 6517 ft | 219 kts | 130° |
| 2026-05-08 06:42 | -78.14536 | 166.78161 | 6286 ft | 217 kts | 133° |
| 2026-05-08 06:42 | -78.15438 | 166.84028 | 6004 ft | 216 kts | 133° |
| 2026-05-08 06:43 | -78.16325 | 166.89944 | 5765 ft | 216 kts | 132° |
| 2026-05-08 06:43 | -78.17193 | 166.95875 | 5513 ft | 214 kts | 132° |
| 2026-05-08 06:43 | -78.18052 | 167.01819 | 5233 ft | 213 kts | 131° |
| 2026-05-08 06:43 | -78.18892 | 167.07793 | 4991 ft | 215 kts | 125° |
| 2026-05-08 06:44 | -78.19195 | 167.15093 | 4728 ft | 236 kts | 85° |
| 2026-05-08 06:44 | -78.18400 | 167.22328 | 4452 ft | 252 kts | 42° |
| 2026-05-08 06:44 | -78.16832 | 167.25787 | 4193 ft | 248 kts | 358° |
| 2026-05-08 06:44 | -78.15242 | 167.23895 | 3978 ft | 230 kts | 315° |
| 2026-05-08 06:45 | -78.14291 | 167.18111 | 3820 ft | 221 kts | 289° |
| 2026-05-08 06:45 | -78.13607 | 167.11240 | 3419 ft | 228 kts | 292° |
| 2026-05-08 06:45 | -78.12889 | 167.04466 | 3275 ft | 222 kts | 295° |
| 2026-05-08 06:45 | -78.11995 | 166.98467 | 3097 ft | 222 kts | 322° |
| 2026-05-08 06:46 | -78.10565 | 166.95637 | 2898 ft | 223 kts | 344° |
| 2026-05-08 06:46 | -78.09069 | 166.93928 | 2737 ft | 218 kts | 346° |
| 2026-05-08 06:46 | -78.07616 | 166.92324 | 2603 ft | 209 kts | 346° |
| 2026-05-08 06:46 | -78.06243 | 166.90763 | 2410 ft | 197 kts | 345° |
| 2026-05-08 06:47 | -78.05002 | 166.88855 | 2233 ft | 178 kts | 329° |
| 2026-05-08 06:47 | -78.03963 | 166.86464 | 2248 ft | 157 kts | 341° |
| 2026-05-08 06:47 | -78.02924 | 166.85119 | 2065 ft | 153 kts | 346° |
| 2026-05-08 06:47 | -78.01890 | 166.84048 | 1765 ft | 151 kts | 346° |
| 2026-05-08 06:48 | -78.00872 | 166.82932 | 1371 ft | 150 kts | 342° |
| 2026-05-08 06:48 | -77.99858 | 166.81589 | 889 ft | 152 kts | 343° |
| 2026-05-08 06:48 | -77.98849 | 166.80052 | 476 ft | 150 kts | 340° |
| 2026-05-08 06:48 | -77.97889 | 166.78471 | 222 ft | 143 kts | 341° |
| 2026-05-08 06:49 | -77.96940 | 166.76933 | 69 ft | 144 kts | 342° |
| 2026-05-08 06:49 | -77.96111 | 166.75626 | 50 ft | 96 kts | 341° |
| 2026-05-08 06:49 | -77.95644 | 166.74891 | 49 ft | 51 kts | 342° |
| 2026-05-08 06:49 | -77.95296 | 166.74331 | 49 ft | 62 kts | 340° |
| 2026-05-08 06:50 | -77.94829 | 166.73555 | 46 ft | 73 kts | 342° |
| 2026-05-08 06:50 | -77.94516 | 166.73075 | 49 ft | 8 kts | 343° |
| 2026-05-08 06:50 | -77.94494 | 166.73059 | 47 ft | 0 kts | 27° |
| 2026-05-08 06:50 | -77.94486 | 166.73092 | 51 ft | 8 kts | 45° |
| 2026-05-08 06:51 | -77.94402 | 166.73417 | 50 ft | 9 kts | 93° |
| 2026-05-08 06:51 | -77.94410 | 166.73458 | 50 ft | 0 kts | 180° |
| 2026-05-08 06:53 | -77.94410 | 166.73457 | 51 ft | 0 kts | 183° |
| 2026-05-08 06:56 | -77.94410 | 166.73458 | 50 ft | 0 kts | 183° |
| 2026-05-08 06:57 | -77.94409 | 166.73458 | 50 ft | 0 kts | 177° |
| 2026-05-08 06:58 | -77.94408 | 166.73458 | 50 ft | 0 kts | 170° |